Terminal Aerodrome Forecast
Issued by NWS

Home | Current Version | Previous Version | Text Only | Print | Product List | Glossary On
Versions: 1 2 3 4 5 6 7 8 9 10 11 12
529
FTPA31 PHFO 301120
TAFHMK
TAF
PHMK 301120Z 3012/3112 03006KT P6SM FEW025
     FM302000 02010KT P6SM FEW025 SCT040=

USA.gov is the U.S. government's official web portal to all federal, state and local government web resources and services.